الصفحة الرئيسية
METAR-TAF:

METAR-TAF

مطار :

كوالا ترغكانو, ماليزيا

دائرة عرض: 05-22-53N, خط طول: 103-06-17E, ارتفاع: 6 متر

مراقبة الطقس الحالي

تاريخ ووقت الإصدار 20 دقيقة قبل الساعة 01:00UTC
ريح 5 عقدة من الجنوب الغربي, الاتجاه يتراوح بين الجنوب/الجنوب الشرقي و الغرب
درجة الحرارة 28°درجة مئوية
الرطوبة 79%
ضغط 1010 hPa
الرؤية 10 كم أو أكثر
غيوم قليلة على ارتفاع 1700 قدم, مزنة ركامية.

METAR: WMKN 190100Z 22005KT 160V260 9999 FEW017CB 28/24 Q1010

زمن: 09:20 (01:20 UTC)

توقعات

تاريخ ووقت الإصدار 2ساعات و 20 دقيقة قبل الساعة 23:00UTC
التوقعات صالحة من19 الساعة 00 UTC إلى 20 الساعة 00 UTC
ريح 3 عقدةمن اتجاهات متغيرة
الرؤية 10 كم أو أكثر
غيوم قليلة على ارتفاع 1800 قدم
مؤقت
من 19 الساعة 08 UTC إلى 19 الساعة 12 UTC
الرؤية: 7000 متر
غيوم قليلة على ارتفاع 1700 قدم, مزنة ركامية.
عاصفة رعدية, مطر خفيف

TAF: WMKN 182300Z 1900/2000 VRB03KT 9999 FEW018 TEMPO 1908/1912 7000 -TSRA FEW017CB

أرصاد الطقس والتوقعات من أكثر من 4000 مطار (تقارير الطقس للمطار METAR والتنبؤ بالطقس بالمطارTAF).

المحطات المتاحة هي النقط الصفراء والحمراء على الخريطة.

حرك المؤشر فوق النقطة لمعرفة اسم المحطة.

ثم انقر لمعرفة أرصاد وتوقعات الطقس.

لتغيير الخارطة: اضغط على الأزرار الخضراء مع رمز الصليب الأسود للتكبير. على الزر الأخضر مع شرطة للتصغير، أو على الأسهم الخضراء للخرائط المجاورة.


METAR-TAF: